sensor_id;sensor_type;location;lat;lon;timestamp;temperature;humidity
9219;DHT22;4644;48.858;9.184;2023-04-25T00:00:48;8.10;99.90
9219;DHT22;4644;48.858;9.184;2023-04-25T00:03:17;8.10;99.90
9219;DHT22;4644;48.858;9.184;2023-04-25T00:05:45;8.00;99.90
9219;DHT22;4644;48.858;9.184;2023-04-25T00:08:12;8.00;99.90
9219;DHT22;4644;48.858;9.184;2023-04-25T00:10:39;8.00;99.90
9219;DHT22;4644;48.858;9.184;2023-04-25T00:13:07;8.00;99.90
9219;DHT22;4644;48.858;9.184;2023-04-25T00:15:34;8.00;99.90
9219;DHT22;4644;48.858;9.184;2023-04-25T00:18:03;8.00;99.90
9219;DHT22;4644;48.858;9.184;2023-04-25T00:20:31;8.00;99.90
9219;DHT22;4644;48.858;9.184;2023-04-25T00:22:58;8.00;99.90
9219;DHT22;4644;48.858;9.184;2023-04-25T00:25:25;8.00;99.90
9219;DHT22;4644;48.858;9.184;2023-04-25T00:27:52;8.00;99.90
9219;DHT22;4644;48.858;9.184;2023-04-25T00:30:22;8.00;99.90
9219;DHT22;4644;48.858;9.184;2023-04-25T00:32:49;8.00;99.90
9219;DHT22;4644;48.858;9.184;2023-04-25T00:35:16;8.00;99.90
9219;DHT22;4644;48.858;9.184;2023-04-25T00:37:43;8.00;99.90
9219;DHT22;4644;48.858;9.184;2023-04-25T00:40:10;8.00;99.90
9219;DHT22;4644;48.858;9.184;2023-04-25T00:42:37;8.00;99.90
9219;DHT22;4644;48.858;9.184;2023-04-25T00:45:06;8.00;99.90
9219;DHT22;4644;48.858;9.184;2023-04-25T00:47:36;8.00;99.90
9219;DHT22;4644;48.858;9.184;2023-04-25T00:50:03;8.00;99.90
9219;DHT22;4644;48.858;9.184;2023-04-25T00:52:30;8.00;99.90
9219;DHT22;4644;48.858;9.184;2023-04-25T00:54:57;8.00;99.90
9219;DHT22;4644;48.858;9.184;2023-04-25T00:57:24;8.00;99.90
9219;DHT22;4644;48.858;9.184;2023-04-25T00:59:51;8.00;99.90
9219;DHT22;4644;48.858;9.184;2023-04-25T01:02:19;7.90;99.90
9219;DHT22;4644;48.858;9.184;2023-04-25T01:04:48;8.00;99.90
9219;DHT22;4644;48.858;9.184;2023-04-25T01:07:15;8.00;99.90
9219;DHT22;4644;48.858;9.184;2023-04-25T01:09:42;8.00;99.90
9219;DHT22;4644;48.858;9.184;2023-04-25T01:12:09;8.00;99.90
9219;DHT22;4644;48.858;9.184;2023-04-25T01:14:36;8.00;99.90
9219;DHT22;4644;48.858;9.184;2023-04-25T01:17:03;8.00;99.90
9219;DHT22;4644;48.858;9.184;2023-04-25T01:19:31;8.00;99.90
9219;DHT22;4644;48.858;9.184;2023-04-25T01:21:59;8.00;99.90
9219;DHT22;4644;48.858;9.184;2023-04-25T01:24:26;8.10;99.90
9219;DHT22;4644;48.858;9.184;2023-04-25T01:26:53;8.00;99.90
9219;DHT22;4644;48.858;9.184;2023-04-25T01:29:22;8.00;99.90
9219;DHT22;4644;48.858;9.184;2023-04-25T01:31:51;8.00;99.90
9219;DHT22;4644;48.858;9.184;2023-04-25T01:34:18;8.00;99.90
9219;DHT22;4644;48.858;9.184;2023-04-25T01:36:47;7.90;99.90
9219;DHT22;4644;48.858;9.184;2023-04-25T01:39:17;7.90;99.90
9219;DHT22;4644;48.858;9.184;2023-04-25T01:41:44;7.90;99.90
9219;DHT22;4644;48.858;9.184;2023-04-25T01:44:12;7.90;99.90
9219;DHT22;4644;48.858;9.184;2023-04-25T01:46:39;7.80;99.90
9219;DHT22;4644;48.858;9.184;2023-04-25T01:49:06;7.80;99.90
9219;DHT22;4644;48.858;9.184;2023-04-25T01:51:33;7.80;99.90
9219;DHT22;4644;48.858;9.184;2023-04-25T01:54:00;7.90;99.90
9219;DHT22;4644;48.858;9.184;2023-04-25T01:56:31;7.90;99.90
9219;DHT22;4644;48.858;9.184;2023-04-25T01:58:59;7.90;99.90
9219;DHT22;4644;48.858;9.184;2023-04-25T02:01:26;7.90;99.90
9219;DHT22;4644;48.858;9.184;2023-04-25T02:03:53;7.90;99.90
9219;DHT22;4644;48.858;9.184;2023-04-25T02:06:20;8.00;99.90
9219;DHT22;4644;48.858;9.184;2023-04-25T02:08:47;8.00;99.90
9219;DHT22;4644;48.858;9.184;2023-04-25T02:11:14;8.00;99.90
9219;DHT22;4644;48.858;9.184;2023-04-25T02:13:42;8.00;99.90
9219;DHT22;4644;48.858;9.184;2023-04-25T02:16:09;8.00;99.90
9219;DHT22;4644;48.858;9.184;2023-04-25T02:18:36;8.00;99.90
9219;DHT22;4644;48.858;9.184;2023-04-25T02:21:04;8.00;99.90
9219;DHT22;4644;48.858;9.184;2023-04-25T02:23:31;8.00;99.90
9219;DHT22;4644;48.858;9.184;2023-04-25T02:25:58;7.90;99.90
9219;DHT22;4644;48.858;9.184;2023-04-25T02:28:25;7.80;99.90
9219;DHT22;4644;48.858;9.184;2023-04-25T02:30:53;7.70;99.90
9219;DHT22;4644;48.858;9.184;2023-04-25T02:33:20;7.70;99.90
9219;DHT22;4644;48.858;9.184;2023-04-25T02:35:47;7.60;99.90
9219;DHT22;4644;48.858;9.184;2023-04-25T02:38:14;7.60;99.90
9219;DHT22;4644;48.858;9.184;2023-04-25T02:40:41;7.60;99.90
9219;DHT22;4644;48.858;9.184;2023-04-25T02:43:08;7.60;99.90
9219;DHT22;4644;48.858;9.184;2023-04-25T02:45:35;7.50;99.90
9219;DHT22;4644;48.858;9.184;2023-04-25T02:48:05;7.60;99.90
9219;DHT22;4644;48.858;9.184;2023-04-25T02:50:32;7.60;99.90
9219;DHT22;4644;48.858;9.184;2023-04-25T02:52:58;7.60;99.90
9219;DHT22;4644;48.858;9.184;2023-04-25T02:55:25;7.60;99.90
9219;DHT22;4644;48.858;9.184;2023-04-25T02:57:52;7.60;99.90
9219;DHT22;4644;48.858;9.184;2023-04-25T03:00:20;7.60;99.90
9219;DHT22;4644;48.858;9.184;2023-04-25T03:02:48;7.60;99.90
9219;DHT22;4644;48.858;9.184;2023-04-25T03:05:16;7.60;99.90
9219;DHT22;4644;48.858;9.184;2023-04-25T03:07:43;7.60;99.90
9219;DHT22;4644;48.858;9.184;2023-04-25T03:10:11;7.60;99.90
9219;DHT22;4644;48.858;9.184;2023-04-25T03:12:38;7.50;99.90
9219;DHT22;4644;48.858;9.184;2023-04-25T03:15:06;7.50;99.90
9219;DHT22;4644;48.858;9.184;2023-04-25T03:17:33;7.50;99.90
9219;DHT22;4644;48.858;9.184;2023-04-25T03:19:59;7.50;99.90
9219;DHT22;4644;48.858;9.184;2023-04-25T03:22:28;7.50;99.90
9219;DHT22;4644;48.858;9.184;2023-04-25T03:24:55;7.50;99.90
9219;DHT22;4644;48.858;9.184;2023-04-25T03:27:22;7.50;99.90
9219;DHT22;4644;48.858;9.184;2023-04-25T03:29:49;7.50;99.90
9219;DHT22;4644;48.858;9.184;2023-04-25T03:32:16;7.50;99.90
9219;DHT22;4644;48.858;9.184;2023-04-25T03:34:42;7.50;99.90
9219;DHT22;4644;48.858;9.184;2023-04-25T03:37:09;7.50;99.90
9219;DHT22;4644;48.858;9.184;2023-04-25T03:39:38;7.50;99.90
9219;DHT22;4644;48.858;9.184;2023-04-25T03:42:05;7.50;99.90
9219;DHT22;4644;48.858;9.184;2023-04-25T03:44:31;7.60;99.90
9219;DHT22;4644;48.858;9.184;2023-04-25T03:46:58;7.60;99.90
9219;DHT22;4644;48.858;9.184;2023-04-25T03:49:25;7.60;99.90
9219;DHT22;4644;48.858;9.184;2023-04-25T03:51:52;7.60;99.90
9219;DHT22;4644;48.858;9.184;2023-04-25T03:54:19;7.60;99.90
9219;DHT22;4644;48.858;9.184;2023-04-25T03:56:47;7.60;99.90
9219;DHT22;4644;48.858;9.184;2023-04-25T03:59:15;7.60;99.90
9219;DHT22;4644;48.858;9.184;2023-04-25T04:01:42;7.60;99.90
9219;DHT22;4644;48.858;9.184;2023-04-25T04:04:08;7.60;99.90
9219;DHT22;4644;48.858;9.184;2023-04-25T04:06:36;7.60;99.90
9219;DHT22;4644;48.858;9.184;2023-04-25T04:09:03;7.60;99.90
9219;DHT22;4644;48.858;9.184;2023-04-25T04:11:31;7.50;99.90
9219;DHT22;4644;48.858;9.184;2023-04-25T04:14:00;7.60;99.90
9219;DHT22;4644;48.858;9.184;2023-04-25T04:16:27;7.60;99.90
9219;DHT22;4644;48.858;9.184;2023-04-25T04:18:54;7.50;99.90
9219;DHT22;4644;48.858;9.184;2023-04-25T04:21:20;7.50;99.90
9219;DHT22;4644;48.858;9.184;2023-04-25T04:23:47;7.50;99.90
9219;DHT22;4644;48.858;9.184;2023-04-25T04:26:14;7.50;99.90
9219;DHT22;4644;48.858;9.184;2023-04-25T04:28:42;7.50;99.90
9219;DHT22;4644;48.858;9.184;2023-04-25T04:31:10;7.50;99.90
9219;DHT22;4644;48.858;9.184;2023-04-25T04:33:38;7.50;99.90
9219;DHT22;4644;48.858;9.184;2023-04-25T04:36:05;7.50;99.90
9219;DHT22;4644;48.858;9.184;2023-04-25T04:38:33;7.50;99.90
9219;DHT22;4644;48.858;9.184;2023-04-25T04:41:00;7.50;99.90
9219;DHT22;4644;48.858;9.184;2023-04-25T04:43:27;7.50;99.90
9219;DHT22;4644;48.858;9.184;2023-04-25T04:45:55;7.50;99.90
9219;DHT22;4644;48.858;9.184;2023-04-25T04:48:24;7.50;99.90
9219;DHT22;4644;48.858;9.184;2023-04-25T04:50:51;7.60;99.90
9219;DHT22;4644;48.858;9.184;2023-04-25T04:53:18;7.60;99.90
9219;DHT22;4644;48.858;9.184;2023-04-25T04:55:45;7.60;99.90
9219;DHT22;4644;48.858;9.184;2023-04-25T04:58:12;7.60;99.90
9219;DHT22;4644;48.858;9.184;2023-04-25T05:00:39;7.60;99.90
9219;DHT22;4644;48.858;9.184;2023-04-25T05:03:06;7.70;99.90
9219;DHT22;4644;48.858;9.184;2023-04-25T05:05:34;7.70;99.90
9219;DHT22;4644;48.858;9.184;2023-04-25T05:08:05;7.80;99.90
9219;DHT22;4644;48.858;9.184;2023-04-25T05:10:32;7.80;99.90
9219;DHT22;4644;48.858;9.184;2023-04-25T05:12:59;7.80;99.90
9219;DHT22;4644;48.858;9.184;2023-04-25T05:15:26;7.90;99.90
9219;DHT22;4644;48.858;9.184;2023-04-25T05:17:53;7.90;99.90
9219;DHT22;4644;48.858;9.184;2023-04-25T05:20:21;8.00;99.90
9219;DHT22;4644;48.858;9.184;2023-04-25T05:22:49;8.00;99.90
9219;DHT22;4644;48.858;9.184;2023-04-25T05:25:16;8.00;99.90
9219;DHT22;4644;48.858;9.184;2023-04-25T05:27:43;8.10;99.90
9219;DHT22;4644;48.858;9.184;2023-04-25T05:30:10;8.10;99.90
9219;DHT22;4644;48.858;9.184;2023-04-25T05:32:37;8.10;99.90
9219;DHT22;4644;48.858;9.184;2023-04-25T05:35:05;8.00;99.90
9219;DHT22;4644;48.858;9.184;2023-04-25T05:37:32;8.10;99.90
9219;DHT22;4644;48.858;9.184;2023-04-25T05:40:00;8.00;99.90
9219;DHT22;4644;48.858;9.184;2023-04-25T05:42:32;8.00;99.90
9219;DHT22;4644;48.858;9.184;2023-04-25T05:44:59;8.00;99.90
9219;DHT22;4644;48.858;9.184;2023-04-25T05:47:26;7.90;99.90
9219;DHT22;4644;48.858;9.184;2023-04-25T05:49:53;7.90;99.90
9219;DHT22;4644;48.858;9.184;2023-04-25T05:52:20;7.80;99.90
9219;DHT22;4644;48.858;9.184;2023-04-25T05:54:47;7.80;99.90
9219;DHT22;4644;48.858;9.184;2023-04-25T05:57:21;7.80;99.90
9219;DHT22;4644;48.858;9.184;2023-04-25T05:59:48;7.80;99.90
9219;DHT22;4644;48.858;9.184;2023-04-25T06:02:15;7.80;99.90
9219;DHT22;4644;48.858;9.184;2023-04-25T06:04:42;7.80;99.90
9219;DHT22;4644;48.858;9.184;2023-04-25T06:07:09;7.80;99.90
9219;DHT22;4644;48.858;9.184;2023-04-25T06:09:36;7.90;99.90
9219;DHT22;4644;48.858;9.184;2023-04-25T06:12:04;7.90;99.90
9219;DHT22;4644;48.858;9.184;2023-04-25T06:14:33;7.90;99.90
9219;DHT22;4644;48.858;9.184;2023-04-25T06:17:00;7.90;99.90
9219;DHT22;4644;48.858;9.184;2023-04-25T06:19:32;8.00;99.90
9219;DHT22;4644;48.858;9.184;2023-04-25T06:21:58;8.00;99.90
9219;DHT22;4644;48.858;9.184;2023-04-25T06:24:25;8.10;99.90
9219;DHT22;4644;48.858;9.184;2023-04-25T06:26:52;8.20;99.90
9219;DHT22;4644;48.858;9.184;2023-04-25T06:29:19;8.30;99.90
9219;DHT22;4644;48.858;9.184;2023-04-25T06:31:47;8.50;99.90
9219;DHT22;4644;48.858;9.184;2023-04-25T06:34:14;8.70;99.90
9219;DHT22;4644;48.858;9.184;2023-04-25T06:36:42;8.80;99.90
9219;DHT22;4644;48.858;9.184;2023-04-25T06:39:10;8.80;99.90
9219;DHT22;4644;48.858;9.184;2023-04-25T06:41:37;8.90;99.90
9219;DHT22;4644;48.858;9.184;2023-04-25T06:44:04;9.00;99.90
9219;DHT22;4644;48.858;9.184;2023-04-25T06:46:31;9.10;99.90
9219;DHT22;4644;48.858;9.184;2023-04-25T06:48:59;9.20;99.90
9219;DHT22;4644;48.858;9.184;2023-04-25T06:51:26;9.30;99.90
9219;DHT22;4644;48.858;9.184;2023-04-25T06:53:55;9.30;99.90
9219;DHT22;4644;48.858;9.184;2023-04-25T06:56:22;9.40;99.90
9219;DHT22;4644;48.858;9.184;2023-04-25T06:58:49;9.30;99.90
9219;DHT22;4644;48.858;9.184;2023-04-25T07:01:16;9.20;99.90
9219;DHT22;4644;48.858;9.184;2023-04-25T07:03:43;9.30;99.90
9219;DHT22;4644;48.858;9.184;2023-04-25T07:06:12;9.20;99.90
9219;DHT22;4644;48.858;9.184;2023-04-25T07:08:39;9.20;99.90
9219;DHT22;4644;48.858;9.184;2023-04-25T07:11:05;9.10;99.90
9219;DHT22;4644;48.858;9.184;2023-04-25T07:13:32;9.10;99.90
9219;DHT22;4644;48.858;9.184;2023-04-25T07:15:59;9.00;99.90
9219;DHT22;4644;48.858;9.184;2023-04-25T07:18:26;9.10;99.90
9219;DHT22;4644;48.858;9.184;2023-04-25T07:20:53;9.20;99.90
9219;DHT22;4644;48.858;9.184;2023-04-25T07:23:22;9.20;99.90
9219;DHT22;4644;48.858;9.184;2023-04-25T07:25:48;9.10;99.90
9219;DHT22;4644;48.858;9.184;2023-04-25T07:28:15;9.00;99.90
9219;DHT22;4644;48.858;9.184;2023-04-25T07:30:43;8.90;99.90
9219;DHT22;4644;48.858;9.184;2023-04-25T07:33:10;9.00;99.90
9219;DHT22;4644;48.858;9.184;2023-04-25T07:35:37;8.90;99.90
9219;DHT22;4644;48.858;9.184;2023-04-25T07:38:04;8.80;99.90
9219;DHT22;4644;48.858;9.184;2023-04-25T07:40:33;8.80;99.90
9219;DHT22;4644;48.858;9.184;2023-04-25T07:43:00;8.90;99.90
9219;DHT22;4644;48.858;9.184;2023-04-25T07:45:27;8.80;99.90
9219;DHT22;4644;48.858;9.184;2023-04-25T07:47:54;8.70;99.90
9219;DHT22;4644;48.858;9.184;2023-04-25T07:50:21;8.70;99.90
9219;DHT22;4644;48.858;9.184;2023-04-25T07:52:49;8.70;99.90
9219;DHT22;4644;48.858;9.184;2023-04-25T07:55:16;8.70;99.90
9219;DHT22;4644;48.858;9.184;2023-04-25T07:57:44;8.70;99.90
9219;DHT22;4644;48.858;9.184;2023-04-25T08:00:12;8.70;99.90
9219;DHT22;4644;48.858;9.184;2023-04-25T08:02:40;8.80;99.90
9219;DHT22;4644;48.858;9.184;2023-04-25T08:05:07;8.80;99.90
9219;DHT22;4644;48.858;9.184;2023-04-25T08:07:37;8.80;99.90
9219;DHT22;4644;48.858;9.184;2023-04-25T08:10:05;8.80;99.90
9219;DHT22;4644;48.858;9.184;2023-04-25T08:12:32;8.90;99.90
9219;DHT22;4644;48.858;9.184;2023-04-25T08:15:00;8.70;99.90
9219;DHT22;4644;48.858;9.184;2023-04-25T08:17:27;8.70;99.90
9219;DHT22;4644;48.858;9.184;2023-04-25T08:19:54;8.60;99.90
9219;DHT22;4644;48.858;9.184;2023-04-25T08:22:22;8.60;99.90
9219;DHT22;4644;48.858;9.184;2023-04-25T08:24:49;8.50;99.90
9219;DHT22;4644;48.858;9.184;2023-04-25T08:27:17;8.50;99.90
9219;DHT22;4644;48.858;9.184;2023-04-25T08:29:46;8.50;99.90
9219;DHT22;4644;48.858;9.184;2023-04-25T08:32:14;8.40;99.90
9219;DHT22;4644;48.858;9.184;2023-04-25T08:34:41;8.40;99.90
9219;DHT22;4644;48.858;9.184;2023-04-25T08:37:09;8.20;99.90
9219;DHT22;4644;48.858;9.184;2023-04-25T08:39:36;8.20;99.90
9219;DHT22;4644;48.858;9.184;2023-04-25T08:42:06;8.10;99.90
9219;DHT22;4644;48.858;9.184;2023-04-25T08:44:34;8.00;99.90
9219;DHT22;4644;48.858;9.184;2023-04-25T08:47:03;7.90;99.90
9219;DHT22;4644;48.858;9.184;2023-04-25T08:49:32;7.80;99.90
9219;DHT22;4644;48.858;9.184;2023-04-25T08:52:00;7.80;99.90
9219;DHT22;4644;48.858;9.184;2023-04-25T08:54:28;7.80;99.90
9219;DHT22;4644;48.858;9.184;2023-04-25T08:56:57;7.90;99.90
9219;DHT22;4644;48.858;9.184;2023-04-25T08:59:24;7.90;99.90
9219;DHT22;4644;48.858;9.184;2023-04-25T09:01:51;7.90;99.90
9219;DHT22;4644;48.858;9.184;2023-04-25T09:04:18;7.90;99.90
9219;DHT22;4644;48.858;9.184;2023-04-25T09:06:47;7.90;99.90
9219;DHT22;4644;48.858;9.184;2023-04-25T09:09:14;7.80;99.90
9219;DHT22;4644;48.858;9.184;2023-04-25T09:11:41;7.60;99.90
9219;DHT22;4644;48.858;9.184;2023-04-25T09:14:12;7.40;99.90
9219;DHT22;4644;48.858;9.184;2023-04-25T09:17:03;7.20;99.90
9219;DHT22;4644;48.858;9.184;2023-04-25T09:19:31;7.10;99.90
9219;DHT22;4644;48.858;9.184;2023-04-25T09:22:03;7.00;99.90
9219;DHT22;4644;48.858;9.184;2023-04-25T09:24:31;7.10;99.90
9219;DHT22;4644;48.858;9.184;2023-04-25T09:26:59;7.10;99.90
9219;DHT22;4644;48.858;9.184;2023-04-25T09:29:30;7.10;99.90
9219;DHT22;4644;48.858;9.184;2023-04-25T09:32:11;7.20;99.90
9219;DHT22;4644;48.858;9.184;2023-04-25T09:34:39;7.20;99.90
9219;DHT22;4644;48.858;9.184;2023-04-25T09:37:09;7.20;99.90
9219;DHT22;4644;48.858;9.184;2023-04-25T09:39:36;7.10;99.90
9219;DHT22;4644;48.858;9.184;2023-04-25T09:42:04;7.10;99.90
9219;DHT22;4644;48.858;9.184;2023-04-25T09:44:31;7.00;99.90
9219;DHT22;4644;48.858;9.184;2023-04-25T09:46:58;6.90;99.90
9219;DHT22;4644;48.858;9.184;2023-04-25T09:49:25;6.90;99.90
9219;DHT22;4644;48.858;9.184;2023-04-25T09:51:56;6.90;99.90
9219;DHT22;4644;48.858;9.184;2023-04-25T09:54:25;6.90;99.90
9219;DHT22;4644;48.858;9.184;2023-04-25T09:56:53;6.80;99.90
9219;DHT22;4644;48.858;9.184;2023-04-25T09:59:20;6.80;99.90
9219;DHT22;4644;48.858;9.184;2023-04-25T10:01:49;6.90;99.90
9219;DHT22;4644;48.858;9.184;2023-04-25T10:04:19;6.90;99.90
9219;DHT22;4644;48.858;9.184;2023-04-25T10:06:49;6.90;99.90
9219;DHT22;4644;48.858;9.184;2023-04-25T10:09:19;7.00;99.90
9219;DHT22;4644;48.858;9.184;2023-04-25T10:11:48;7.00;99.90
9219;DHT22;4644;48.858;9.184;2023-04-25T10:14:17;6.80;99.90
9219;DHT22;4644;48.858;9.184;2023-04-25T10:16:45;6.80;99.90
9219;DHT22;4644;48.858;9.184;2023-04-25T10:19:13;6.70;99.90
9219;DHT22;4644;48.858;9.184;2023-04-25T10:21:46;6.50;99.90
9219;DHT22;4644;48.858;9.184;2023-04-25T10:24:15;6.50;99.90
9219;DHT22;4644;48.858;9.184;2023-04-25T10:26:42;6.40;99.90
9219;DHT22;4644;48.858;9.184;2023-04-25T10:29:10;6.30;99.90
9219;DHT22;4644;48.858;9.184;2023-04-25T10:31:47;6.40;99.90
9219;DHT22;4644;48.858;9.184;2023-04-25T10:34:13;6.40;99.90
9219;DHT22;4644;48.858;9.184;2023-04-25T10:36:42;6.30;99.90
9219;DHT22;4644;48.858;9.184;2023-04-25T10:39:09;6.20;99.90
9219;DHT22;4644;48.858;9.184;2023-04-25T10:41:52;6.20;99.90
9219;DHT22;4644;48.858;9.184;2023-04-25T10:44:21;6.20;99.90
9219;DHT22;4644;48.858;9.184;2023-04-25T10:46:48;6.20;99.90
9219;DHT22;4644;48.858;9.184;2023-04-25T10:49:32;6.20;99.90
9219;DHT22;4644;48.858;9.184;2023-04-25T10:52:18;6.30;99.90
9219;DHT22;4644;48.858;9.184;2023-04-25T10:54:50;6.30;99.90
9219;DHT22;4644;48.858;9.184;2023-04-25T10:57:36;6.30;99.90
9219;DHT22;4644;48.858;9.184;2023-04-25T11:00:11;6.30;99.90
9219;DHT22;4644;48.858;9.184;2023-04-25T11:02:41;6.30;99.90
9219;DHT22;4644;48.858;9.184;2023-04-25T11:05:11;6.40;99.90
9219;DHT22;4644;48.858;9.184;2023-04-25T11:07:49;6.50;99.90
9219;DHT22;4644;48.858;9.184;2023-04-25T11:10:17;6.60;99.90
9219;DHT22;4644;48.858;9.184;2023-04-25T11:12:45;6.70;99.90
9219;DHT22;4644;48.858;9.184;2023-04-25T11:15:14;6.80;99.90
9219;DHT22;4644;48.858;9.184;2023-04-25T11:17:41;6.80;99.90
9219;DHT22;4644;48.858;9.184;2023-04-25T11:20:09;6.80;99.90
9219;DHT22;4644;48.858;9.184;2023-04-25T11:22:40;6.90;99.90
9219;DHT22;4644;48.858;9.184;2023-04-25T11:25:09;7.00;99.90
9219;DHT22;4644;48.858;9.184;2023-04-25T11:27:38;7.10;99.90
9219;DHT22;4644;48.858;9.184;2023-04-25T11:30:15;7.10;99.90
9219;DHT22;4644;48.858;9.184;2023-04-25T11:32:42;7.10;99.90
9219;DHT22;4644;48.858;9.184;2023-04-25T11:35:10;7.10;99.90
9219;DHT22;4644;48.858;9.184;2023-04-25T11:37:39;7.20;99.90
9219;DHT22;4644;48.858;9.184;2023-04-25T11:40:07;7.10;99.90
9219;DHT22;4644;48.858;9.184;2023-04-25T11:42:37;7.20;99.90
9219;DHT22;4644;48.858;9.184;2023-04-25T11:45:06;7.10;99.90
9219;DHT22;4644;48.858;9.184;2023-04-25T11:47:34;7.20;99.90
9219;DHT22;4644;48.858;9.184;2023-04-25T11:50:03;7.20;99.90
9219;DHT22;4644;48.858;9.184;2023-04-25T11:52:41;7.20;99.90
9219;DHT22;4644;48.858;9.184;2023-04-25T11:55:10;7.20;99.90
9219;DHT22;4644;48.858;9.184;2023-04-25T11:57:40;7.20;99.90
9219;DHT22;4644;48.858;9.184;2023-04-25T12:00:11;7.20;99.90
9219;DHT22;4644;48.858;9.184;2023-04-25T12:02:42;7.10;99.90
9219;DHT22;4644;48.858;9.184;2023-04-25T12:05:10;7.00;99.90
9219;DHT22;4644;48.858;9.184;2023-04-25T12:07:37;7.10;99.90
9219;DHT22;4644;48.858;9.184;2023-04-25T12:10:05;7.00;99.90
9219;DHT22;4644;48.858;9.184;2023-04-25T12:12:33;7.00;99.90
9219;DHT22;4644;48.858;9.184;2023-04-25T12:15:09;6.90;99.90
9219;DHT22;4644;48.858;9.184;2023-04-25T12:17:36;6.90;99.90
9219;DHT22;4644;48.858;9.184;2023-04-25T12:20:11;6.90;99.90
9219;DHT22;4644;48.858;9.184;2023-04-25T12:22:40;6.90;99.90
9219;DHT22;4644;48.858;9.184;2023-04-25T12:25:10;6.90;99.90
9219;DHT22;4644;48.858;9.184;2023-04-25T12:27:37;7.00;99.90
9219;DHT22;4644;48.858;9.184;2023-04-25T12:30:06;7.10;99.90
9219;DHT22;4644;48.858;9.184;2023-04-25T12:32:34;7.10;99.90
9219;DHT22;4644;48.858;9.184;2023-04-25T12:35:01;7.40;99.90
9219;DHT22;4644;48.858;9.184;2023-04-25T12:37:30;7.60;99.90
9219;DHT22;4644;48.858;9.184;2023-04-25T12:39:57;8.00;99.90
9219;DHT22;4644;48.858;9.184;2023-04-25T12:42:23;8.30;99.90
9219;DHT22;4644;48.858;9.184;2023-04-25T12:44:50;8.70;99.90
9219;DHT22;4644;48.858;9.184;2023-04-25T12:47:17;8.90;99.90
9219;DHT22;4644;48.858;9.184;2023-04-25T12:49:44;9.00;99.90
9219;DHT22;4644;48.858;9.184;2023-04-25T12:52:11;9.10;99.90
9219;DHT22;4644;48.858;9.184;2023-04-25T12:54:39;9.00;99.90
9219;DHT22;4644;48.858;9.184;2023-04-25T12:57:06;9.20;99.90
9219;DHT22;4644;48.858;9.184;2023-04-25T12:59:33;9.40;99.90
9219;DHT22;4644;48.858;9.184;2023-04-25T13:02:00;9.60;99.90
9219;DHT22;4644;48.858;9.184;2023-04-25T13:04:27;9.60;99.90
9219;DHT22;4644;48.858;9.184;2023-04-25T13:06:54;9.40;99.90
9219;DHT22;4644;48.858;9.184;2023-04-25T13:09:22;9.50;99.90
9219;DHT22;4644;48.858;9.184;2023-04-25T13:11:50;9.20;99.90
9219;DHT22;4644;48.858;9.184;2023-04-25T13:14:17;9.30;99.90
9219;DHT22;4644;48.858;9.184;2023-04-25T13:16:44;9.10;99.90
9219;DHT22;4644;48.858;9.184;2023-04-25T13:19:11;9.20;99.90
9219;DHT22;4644;48.858;9.184;2023-04-25T13:21:38;9.30;99.90
9219;DHT22;4644;48.858;9.184;2023-04-25T13:24:05;9.30;99.90
9219;DHT22;4644;48.858;9.184;2023-04-25T13:26:32;9.40;99.90
9219;DHT22;4644;48.858;9.184;2023-04-25T13:29:00;9.30;99.90
9219;DHT22;4644;48.858;9.184;2023-04-25T13:31:29;9.20;99.90
9219;DHT22;4644;48.858;9.184;2023-04-25T13:33:56;8.90;99.90
9219;DHT22;4644;48.858;9.184;2023-04-25T13:36:23;8.90;99.90
9219;DHT22;4644;48.858;9.184;2023-04-25T13:38:51;8.90;99.90
9219;DHT22;4644;48.858;9.184;2023-04-25T13:41:18;9.00;99.90
9219;DHT22;4644;48.858;9.184;2023-04-25T13:43:46;9.00;99.90
9219;DHT22;4644;48.858;9.184;2023-04-25T13:46:15;9.20;99.90
9219;DHT22;4644;48.858;9.184;2023-04-25T13:48:42;9.40;99.90
9219;DHT22;4644;48.858;9.184;2023-04-25T13:51:13;9.30;99.90
9219;DHT22;4644;48.858;9.184;2023-04-25T13:53:41;9.50;99.90
9219;DHT22;4644;48.858;9.184;2023-04-25T13:56:07;9.90;99.90
9219;DHT22;4644;48.858;9.184;2023-04-25T13:58:35;10.10;99.90
9219;DHT22;4644;48.858;9.184;2023-04-25T14:01:02;10.50;99.90
9219;DHT22;4644;48.858;9.184;2023-04-25T14:03:31;10.50;99.90
9219;DHT22;4644;48.858;9.184;2023-04-25T14:05:58;10.50;99.90
9219;DHT22;4644;48.858;9.184;2023-04-25T14:08:26;10.20;99.90
9219;DHT22;4644;48.858;9.184;2023-04-25T14:10:54;10.30;99.90
9219;DHT22;4644;48.858;9.184;2023-04-25T14:13:21;10.40;99.90
9219;DHT22;4644;48.858;9.184;2023-04-25T14:15:49;10.50;99.90
9219;DHT22;4644;48.858;9.184;2023-04-25T14:18:17;10.70;99.90
9219;DHT22;4644;48.858;9.184;2023-04-25T14:20:46;11.00;99.90
9219;DHT22;4644;48.858;9.184;2023-04-25T14:23:13;11.00;99.90
9219;DHT22;4644;48.858;9.184;2023-04-25T14:25:40;10.80;99.90
9219;DHT22;4644;48.858;9.184;2023-04-25T14:28:07;10.90;99.90
9219;DHT22;4644;48.858;9.184;2023-04-25T14:30:34;11.00;99.90
9219;DHT22;4644;48.858;9.184;2023-04-25T14:33:01;11.00;99.90
9219;DHT22;4644;48.858;9.184;2023-04-25T14:35:28;11.00;99.90
9219;DHT22;4644;48.858;9.184;2023-04-25T14:37:57;10.90;99.90
9219;DHT22;4644;48.858;9.184;2023-04-25T14:40:24;10.70;99.90
9219;DHT22;4644;48.858;9.184;2023-04-25T14:42:51;10.60;99.90
9219;DHT22;4644;48.858;9.184;2023-04-25T14:45:18;10.70;99.90
9219;DHT22;4644;48.858;9.184;2023-04-25T14:47:45;10.60;99.90
9219;DHT22;4644;48.858;9.184;2023-04-25T14:50:12;10.60;99.90
9219;DHT22;4644;48.858;9.184;2023-04-25T14:52:38;10.70;99.90
9219;DHT22;4644;48.858;9.184;2023-04-25T14:55:07;10.60;99.90
9219;DHT22;4644;48.858;9.184;2023-04-25T14:57:35;10.30;99.90
9219;DHT22;4644;48.858;9.184;2023-04-25T15:00:03;10.50;99.90
9219;DHT22;4644;48.858;9.184;2023-04-25T15:02:34;10.50;99.90
9219;DHT22;4644;48.858;9.184;2023-04-25T15:05:01;10.50;99.90
9219;DHT22;4644;48.858;9.184;2023-04-25T15:07:28;10.30;99.90
9219;DHT22;4644;48.858;9.184;2023-04-25T15:09:56;10.50;99.90
9219;DHT22;4644;48.858;9.184;2023-04-25T15:12:24;10.50;99.90
9219;DHT22;4644;48.858;9.184;2023-04-25T15:14:53;10.50;99.90
9219;DHT22;4644;48.858;9.184;2023-04-25T15:17:21;10.40;99.90
9219;DHT22;4644;48.858;9.184;2023-04-25T15:19:48;10.20;99.90
9219;DHT22;4644;48.858;9.184;2023-04-25T15:22:15;10.40;99.90
9219;DHT22;4644;48.858;9.184;2023-04-25T15:24:42;10.60;99.90
9219;DHT22;4644;48.858;9.184;2023-04-25T15:27:09;10.50;99.90
9219;DHT22;4644;48.858;9.184;2023-04-25T15:29:37;10.60;99.90
9219;DHT22;4644;48.858;9.184;2023-04-25T15:32:04;10.70;99.90
9219;DHT22;4644;48.858;9.184;2023-04-25T15:34:31;10.70;99.90
9219;DHT22;4644;48.858;9.184;2023-04-25T15:36:58;10.80;99.90
9219;DHT22;4644;48.858;9.184;2023-04-25T15:39:25;10.90;99.90
9219;DHT22;4644;48.858;9.184;2023-04-25T15:41:52;11.10;99.90
9219;DHT22;4644;48.858;9.184;2023-04-25T15:44:19;11.00;99.90
9219;DHT22;4644;48.858;9.184;2023-04-25T15:46:47;10.90;99.90
9219;DHT22;4644;48.858;9.184;2023-04-25T15:49:14;10.60;99.90
9219;DHT22;4644;48.858;9.184;2023-04-25T15:51:42;10.50;99.90
9219;DHT22;4644;48.858;9.184;2023-04-25T15:54:09;10.60;99.90
9219;DHT22;4644;48.858;9.184;2023-04-25T15:56:36;10.80;99.90
9219;DHT22;4644;48.858;9.184;2023-04-25T15:59:03;11.00;99.90
9219;DHT22;4644;48.858;9.184;2023-04-25T16:01:30;11.00;99.90
9219;DHT22;4644;48.858;9.184;2023-04-25T16:03:59;11.20;99.90
9219;DHT22;4644;48.858;9.184;2023-04-25T16:06:26;11.00;99.90
9219;DHT22;4644;48.858;9.184;2023-04-25T16:08:53;10.80;99.90
9219;DHT22;4644;48.858;9.184;2023-04-25T16:11:20;10.40;99.90
9219;DHT22;4644;48.858;9.184;2023-04-25T16:13:48;10.30;99.90
9219;DHT22;4644;48.858;9.184;2023-04-25T16:16:15;10.40;99.90
9219;DHT22;4644;48.858;9.184;2023-04-25T16:18:42;10.30;99.90